Latest Weather Observations for Northeast Island

IDD60801

Issued at 4:35 pm CST Wednesday 16 April 2014 (issued every 30 minutes, with the page automatically refreshed every 10 minutes)

About weather observations | Map of weather stations | Latest weather observations for NT | Other Formats
Station Details ID: 200782 Name: NORTH EAST ISLAND Lat: -13.64 Lon: 136.94 Height: 17.4 m
Data from the previous 72 hours. | See also: Recent months for locations in Northern Territory
Date/Time
CST
Temp
°C
App
Temp
°C
Dew
Point
Rel
Hum
%
Delta-T
°C
Wind Press
QNH
hPa
Press
MSL
hPa
Rain
since 9 am
mm
Dir
 
Spd
km/h
Gust
km/h
Spd
kts
Gust
kts
16/04:30pm 31.4 33.0 19.1 48 8.0 ESE 9 13 5 7 1008.9 - 0.0
16/04:00pm 31.8 33.5 19.4 47 8.1 E 9 15 5 8 1008.8 - 0.0
16/03:30pm 32.0 33.8 19.6 47 8.2 E 9 15 5 8 1008.7 - 0.0
16/03:00pm 31.9 33.8 19.8 48 8.0 E 9 15 5 8 1008.8 1008.7 0.0
16/02:30pm 32.3 33.9 19.9 48 8.2 E 11 15 6 8 1009.0 - 0.0
16/02:00pm 32.1 33.4 19.4 47 8.3 E 11 17 6 9 1009.3 - 0.0
16/01:30pm 33.2 35.0 20.4 47 8.5 E 11 15 6 8 1009.6 - 0.0
16/01:00pm 33.2 34.8 20.7 47 8.4 E 13 19 7 10 1009.7 - 0.0
16/12:30pm 32.5 34.2 20.1 48 8.2 E 11 17 6 9 1009.9 - 0.0
16/12:00pm 32.4 33.6 20.0 48 8.2 E 13 19 7 10 1010.4 1010.3 0.0
16/11:30am 33.0 35.1 20.2 47 8.5 E 9 13 5 7 1010.7 - 0.0
16/11:00am 33.0 35.2 20.5 47 8.4 E 9 15 5 8 1011.1 - 0.0
16/10:30am 32.5 34.6 20.1 48 8.2 E 9 13 5 7 1011.4 - 0.0
16/10:00am 32.6 34.3 20.2 48 8.2 E 11 15 6 8 1011.4 - 0.0
16/09:30am 31.8 33.0 19.1 47 8.3 E 11 15 6 8 1011.2 - 0.0
16/09:00am 31.8 33.4 19.1 47 8.3 E 9 15 5 8 1011.1 1011.0 0.0
16/08:30am 31.3 33.2 20.6 53 7.1 E 11 13 6 7 1011.1 - 0.0
16/08:00am 30.5 32.6 21.0 57 6.3 E 11 15 6 8 1011.0 - 0.0
16/07:30am 28.8 31.7 21.0 62 5.2 ENE 7 11 4 6 1010.8 - 0.0
16/07:00am 26.3 29.0 20.6 71 3.7 ENE 7 9 4 5 1010.5 - 0.0
16/06:30am 25.9 28.4 20.2 71 3.7 ENE 7 9 4 5 1010.1 - 0.0
16/06:00am 26.0 28.7 20.3 71 3.7 NE 6 7 3 4 1009.8 1009.7 0.0
16/05:30am 26.0 28.9 20.6 72 3.5 NE 6 7 3 4 1009.8 - 0.0
16/05:00am 26.0 28.9 20.6 72 3.5 NNE 6 7 3 4 1009.5 - 0.0
16/04:30am 26.1 29.0 20.7 72 3.5 NNE 6 9 3 5 1009.5 - 0.0
16/04:00am 26.1 28.9 20.9 73 3.4 NNE 7 7 4 4 1009.5 - 0.0
16/03:30am 26.1 28.9 20.9 73 3.4 NNE 7 9 4 5 1009.3 - 0.0
16/03:00am 26.1 28.7 20.4 71 3.7 N 7 9 4 5 1009.2 1009.1 0.0
16/02:30am 26.0 28.5 19.9 69 4.0 NNE 6 7 3 4 1009.2 - 0.0
16/02:00am 26.4 28.9 19.8 67 4.3 NNE 6 7 3 4 1009.4 - 0.0
16/01:30am 26.2 28.6 19.6 67 4.3 NNE 6 7 3 4 1009.6 - 0.0
16/01:00am 26.8 29.3 19.9 66 4.5 NE 6 7 3 4 1009.9 - 0.0
16/12:30am 26.9 29.6 20.7 69 4.1 ENE 7 7 4 4 1010.1 - 0.0
16/12:00am 26.6 29.7 21.1 72 3.6 E 6 7 3 4 1010.5 1010.4 0.0
 
Date/Time
CST
Temp
°C
App
Temp
°C
Dew
Point
Rel
Hum
%
Delta-T
°C
Wind Press
QNH
hPa
Press
MSL
hPa
Rain
since 9 am
mm
Dir
 
Spd
km/h
Gust
km/h
Spd
kts
Gust
kts
15/11:30pm 26.9 31.2 21.2 71 3.8 CALM 0 0 0 0 1010.6 - 0.0
15/11:00pm 27.4 31.7 21.2 69 4.1 CALM 0 0 0 0 1010.7 - 0.0
15/10:30pm 27.7 31.8 20.8 66 4.6 CALM 0 6 0 3 1010.7 - 0.0
15/10:00pm 27.7 31.9 21.0 67 4.4 CALM 0 0 0 0 1010.9 - 0.0
15/09:30pm 27.7 31.8 20.8 66 4.6 CALM 0 0 0 0 1010.9 - 0.0
15/09:00pm 27.9 32.0 20.7 65 4.8 CALM 0 0 0 0 1010.9 1010.8 0.0
15/08:30pm 28.1 31.3 20.6 63 4.9 NNW 4 6 2 3 1010.9 - 0.0
15/08:00pm 28.4 31.3 20.7 63 5.1 NNW 6 7 3 4 1010.6 - 0.0
15/07:30pm 28.6 31.6 20.9 63 5.1 N 6 7 3 4 1010.2 - 0.0
15/07:00pm 28.8 31.6 20.5 61 5.5 NNW 6 7 3 4 1009.6 - 0.0
15/06:30pm 29.4 32.1 20.3 58 6.0 NNW 6 7 3 4 1009.2 - 0.0
15/06:00pm 30.3 32.6 19.9 53 6.8 NNW 7 9 4 5 1008.9 1008.8 0.0
15/05:30pm 30.7 32.4 19.4 51 7.4 N 9 13 5 7 1008.9 - 0.0
15/05:00pm 31.6 33.2 18.2 44 8.6 NNE 7 11 4 6 1008.6 - 0.0
15/04:30pm 32.2 33.7 18.0 42 9.1 ENE 7 11 4 6 1008.5 - 0.0
15/04:00pm 32.1 33.5 18.7 45 8.7 E 9 13 5 7 1008.5 - 0.0
15/03:30pm 32.9 34.3 18.7 43 9.3 E 9 15 5 8 1008.6 - 0.0
15/03:00pm 32.9 34.6 19.4 45 8.9 ESE 9 17 5 9 1008.7 1008.6 0.0
15/02:30pm 33.6 35.1 18.9 41 9.6 E 9 13 5 7 1008.9 - 0.0
15/02:00pm 33.4 34.6 18.3 40 9.8 E 9 13 5 7 1009.2 - 0.0
15/01:30pm 32.9 34.7 18.7 43 9.3 SE 7 11 4 6 1009.7 - 0.0
15/01:00pm 32.7 34.1 17.7 40 9.6 SE 7 13 4 7 1010.1 - 0.0
15/12:30pm 33.0 34.8 18.7 42 9.3 SSE 7 11 4 6 1010.5 - 0.0
15/12:00pm 31.3 33.6 19.9 50 7.5 SSW 7 11 4 6 1010.9 1010.8 0.0
15/11:30am 31.4 33.4 20.7 53 7.1 W 11 13 6 7 1011.3 - 0.0
15/11:00am 32.0 34.9 21.8 54 6.9 WSW 9 13 5 7 1011.6 - 0.0
15/10:30am 31.2 33.2 20.8 54 6.9 W 11 17 6 9 1011.8 - 0.0
15/10:00am 31.3 33.4 20.9 54 7.0 WSW 11 15 6 8 1011.8 - 0.0
15/09:30am 30.8 33.0 19.5 51 7.4 SW 7 9 4 5 1011.7 - 0.0
15/09:00am 30.4 32.4 19.1 50 7.4 SW 7 11 4 6 1011.5 1011.4 0.0
15/08:30am 30.0 32.0 20.0 55 6.6 WSW 9 13 5 7 1011.3 - 0.0
15/08:00am 29.6 31.5 20.5 58 6.0 WSW 11 17 6 9 1011.2 - 0.0
15/07:30am 29.1 32.8 22.6 68 4.4 WSW 7 11 4 6 1010.9 - 0.0
15/07:00am 27.1 30.6 20.4 66 4.4 E 2 7 1 4 1010.6 - 0.0
15/06:30am 26.8 30.5 19.9 66 4.5 CALM 0 0 0 0 1010.3 - 0.0
15/06:00am 26.9 30.9 20.5 68 4.2 CALM 0 0 0 0 1010.1 1010.0 0.0
15/05:30am 26.8 30.7 20.4 68 4.2 CALM 0 0 0 0 1009.7 - 0.0
15/05:00am 26.6 30.4 20.2 68 4.2 CALM 0 0 0 0 1009.4 - 0.0
15/04:30am 27.0 30.9 20.3 66 4.4 CALM 0 4 0 2 1009.2 - 0.0
15/04:00am 26.8 29.7 19.9 66 4.5 E 4 6 2 3 1009.1 - 0.0
15/03:30am 26.9 29.5 20.0 66 4.5 E 6 6 3 3 1009.1 - 0.0
15/03:00am 27.4 31.0 19.7 63 5.0 CALM 0 0 0 0 1009.1 1009.0 0.0
15/02:30am 28.2 31.2 20.0 61 5.4 SE 4 7 2 4 1009.3 - 0.0
15/02:00am 28.9 31.7 20.4 60 5.6 SE 6 9 3 5 1009.2 - 0.0
15/01:30am 28.9 31.4 19.8 58 6.0 SE 6 7 3 4 1009.5 - 0.0
15/01:00am 28.9 31.7 20.4 60 5.6 ESE 6 9 3 5 1009.7 - 0.0
15/12:30am 28.9 31.3 20.1 59 5.8 SSE 7 11 4 6 1010.0 - 0.0
15/12:00am 29.1 31.7 20.0 58 6.0 SE 6 9 3 5 1010.2 1010.1 0.0
 
Date/Time
CST
Temp
°C
App
Temp
°C
Dew
Point
Rel
Hum
%
Delta-T
°C
Wind Press
QNH
hPa
Press
MSL
hPa
Rain
since 9 am
mm
Dir
 
Spd
km/h
Gust
km/h
Spd
kts
Gust
kts
14/11:30pm 29.2 31.8 20.1 58 6.0 ESE 6 11 3 6 1010.3 - 0.0
14/11:00pm 29.1 31.5 20.0 58 6.0 SE 7 9 4 5 1010.6 - 0.0
14/10:30pm 29.1 31.7 20.5 59 5.7 SSE 7 11 4 6 1010.7 - 0.0
14/10:00pm 29.0 31.3 19.9 58 6.0 SE 7 13 4 7 1010.7 - 0.0
14/09:30pm 29.1 31.6 20.3 59 5.8 SE 7 13 4 7 1010.7 - 0.0
14/09:00pm 29.2 31.4 20.4 59 5.8 SE 9 13 5 7 1010.6 1010.5 0.0
14/08:30pm 29.2 31.6 20.1 58 6.0 SSE 7 13 4 7 1010.4 - 0.0
14/08:00pm 29.3 31.8 20.2 58 6.0 SE 7 11 4 6 1010.1 - 0.0
14/07:30pm 29.4 31.9 20.3 58 6.0 SE 7 13 4 7 1009.6 - 0.0
14/07:00pm 29.4 31.6 20.5 58 5.9 ESE 9 15 5 8 1009.2 - 0.0
14/06:30pm 29.4 32.3 21.1 61 5.5 SE 7 11 4 6 1008.9 - 0.0
14/06:00pm 29.8 32.5 20.6 57 6.1 SE 7 11 4 6 1008.5 1008.4 0.0
14/05:30pm 30.4 33.1 20.6 55 6.5 ESE 7 13 4 7 1008.2 - 0.0
14/05:00pm 31.0 33.7 20.6 54 6.9 SE 7 15 4 8 1007.9 - 0.0
14/04:30pm 31.4 34.2 21.6 56 6.6 ESE 9 13 5 7 1007.8 - 0.0
14/04:00pm 32.0 35.6 22.4 57 6.6 WSW 7 11 4 6 1007.7 - 0.0
14/03:30pm 31.0 34.3 21.8 58 6.2 W 7 11 4 6 1007.6 - 0.0
14/03:00pm 31.5 34.5 21.9 56 6.5 WSW 9 13 5 7 1007.7 1007.6 0.0
14/02:30pm 31.3 34.3 22.0 57 6.3 W 9 13 5 7 1008.0 - 0.0
14/02:00pm 31.3 33.9 22.0 57 6.3 W 11 17 6 9 1008.4 - 0.0
14/01:30pm 31.1 33.9 21.6 57 6.4 WSW 9 13 5 7 1008.7 - 0.0
14/01:00pm 31.2 33.4 21.1 55 6.8 W 11 17 6 9 1009.1 - 0.0
14/12:30pm 31.3 34.2 21.8 57 6.4 WSW 9 13 5 7 1009.3 - 0.0
14/12:00pm 31.7 34.5 21.5 54 6.9 WSW 9 13 5 7 1009.6 1009.5 0.0
14/11:30am 31.2 34.5 21.9 57 6.3 WSW 7 11 4 6 1009.9 - 0.0
14/11:00am 31.2 34.3 22.2 58 6.1 W 9 11 5 6 1010.4 - 0.0
14/10:30am 30.9 34.0 21.4 57 6.4 WSW 7 11 4 6 1010.5 - 0.0
14/10:00am 30.8 34.1 21.9 59 6.0 W 7 9 4 5 1010.6 - 0.0
14/09:30am 30.6 34.3 22.2 61 5.7 SW 6 9 3 5 1010.6 - 0.0
14/09:00am 30.6 34.5 22.5 62 5.5 SSW 6 7 3 4 1010.4 1010.3 0.0
14/08:30am 29.8 33.7 22.5 65 5.0 WSW 6 7 3 4 1010.4 - 0.0
14/08:00am 29.2 33.7 22.2 66 4.7 WSW 2 6 1 3 1010.2 - 0.0
14/07:30am 28.8 32.2 21.6 65 4.8 WSW 6 9 3 5 1009.9 - 0.0
14/07:00am 28.1 31.7 22.1 70 4.0 SW 6 9 3 5 1009.5 - 0.0
14/06:30am 28.0 32.1 22.2 70 3.9 SSW 4 9 2 5 1009.2 - 0.0
14/06:00am 27.8 31.9 22.3 72 3.7 SW 4 9 2 5 1008.9 1008.8 0.0
14/05:30am 27.9 31.9 22.8 74 3.5 SW 6 9 3 5 1008.6 - 0.0
14/05:00am 27.3 31.0 22.3 74 3.4 S 6 7 3 4 1008.4 - 0.0
14/04:30am 26.9 31.7 22.1 75 3.2 CALM 0 0 0 0 1008.2 - 0.0
14/04:00am 27.1 31.0 21.8 73 3.5 SE 4 6 2 3 1008.0 - 0.0
14/03:30am 27.5 32.4 22.4 73 3.4 CALM 0 0 0 0 1007.8 - 0.0
14/03:00am 26.9 31.8 22.3 76 3.1 CALM 0 0 0 0 1007.9 1007.8 0.0
14/02:30am 26.7 31.1 22.1 76 3.1 NE 2 4 1 2 1008.0 - 0.0
14/02:00am 26.6 30.4 21.6 74 3.3 NE 4 6 2 3 1008.2 - 0.0
14/01:30am 26.6 30.1 21.8 75 3.2 ENE 6 7 3 4 1008.3 - 0.0
14/01:00am 27.1 30.6 22.1 74 3.4 ENE 7 9 4 5 1008.5 - 0.0
14/12:30am 27.0 30.4 22.0 74 3.4 E 7 9 4 5 1008.7 - 0.0
14/12:00am 27.3 31.0 22.3 74 3.4 E 6 7 3 4 1008.8 1008.7 0.0
 
Date/Time
CST
Temp
°C
App
Temp
°C
Dew
Point
Rel
Hum
%
Delta-T
°C
Wind Press
QNH
hPa
Press
MSL
hPa
Rain
since 9 am
mm
Dir
 
Spd
km/h
Gust
km/h
Spd
kts
Gust
kts
13/11:30pm 27.6 31.3 21.4 69 4.1 E 4 7 2 4 1009.0 - 0.0
13/11:00pm 28.6 31.6 21.9 67 4.5 ESE 9 13 5 7 1009.1 - 0.0
13/10:30pm 28.7 31.6 21.7 66 4.7 ESE 9 13 5 7 1009.3 - 0.0
13/10:00pm 28.9 32.0 22.2 67 4.5 ESE 9 13 5 7 1009.4 - 0.0
13/09:30pm 29.3 31.5 21.8 64 5.0 ESE 13 20 7 11 1009.5 - 0.0
13/09:00pm 29.3 32.5 22.3 66 4.7 ESE 9 15 5 8 1009.4 1009.3 0.0
13/08:30pm 29.4 32.6 22.4 66 4.8 ESE 9 15 5 8 1009.4 - 0.0
13/08:00pm 29.4 32.4 21.9 64 5.1 ESE 9 17 5 9 1008.9 - 0.0
13/07:30pm 29.5 32.9 22.0 64 5.1 ESE 7 13 4 7 1008.5 - 0.0
13/07:00pm 29.7 32.5 21.6 61 5.4 SE 9 15 5 8 1008.3 - 0.0
13/06:30pm 29.8 32.8 22.0 63 5.3 SE 9 17 5 9 1007.9 - 0.0
13/06:00pm 30.4 33.2 21.5 59 6.0 ESE 9 13 5 7 1007.8 1007.7 0.0
13/05:30pm 30.5 33.3 21.6 59 6.0 SE 9 17 5 9 1007.5 - 0.0
13/05:00pm 30.7 33.1 21.5 58 6.2 SE 11 19 6 10 1007.2 - 0.0

Other Formats:

Comma delimited format used in spreadsheet applications
http://www.bom.gov.au/fwo/IDD60801/IDD60801.94151.axf

JavaScript Object Notation format (JSON) in row-major order
http://www.bom.gov.au/fwo/IDD60801/IDD60801.94151.json